Pagrindinis puslapis
METAR-TAF:

METAR-TAF

Oro uostai :

Bisha, Saudo Arabija

platuma: 19-59N, ilguma: 042-37E, Aukštis: 1167 m

Dabartinis oras

Ataskaita buvo paskelbta 57 minutes, ne 04:00 UTC
Vėjas 5 kt iš Pietų
Temperatūra 14°C
Drėgmė 36%
Slėgis 1020 hPa
Matomumas 10 km arba daugiau
nėra debesų žemiau 1500 m ir nėra kamuolinių lietaus debesų

METAR: OEBH 290400Z 18005KT CAVOK 14/M01 Q1020 NOSIG

Laikas: 07:57 (04:57 UTC)

Prognozė

Ataskaita buvo paskelbta 5 valandos ir 57 minutes, ne 23:00 UTC
Prognozė galioja nuo 29 metu 00 UTC su 30 metu 06 UTC
Vėjas 3 kt nuo kintamojo kryptimis
Matomumas 10 km arba daugiau
nėra debesų žemiau 1500 m ir nėra kamuolinių lietaus debesų
Tapsmas
nuo 29 metu 06 UTC su 29 metu 08 UTC
Vėjas 15 kt iš Pietryčių
Tapsmas
nuo 29 metu 16 UTC su 29 metu 18 UTC
Vėjas 6 kt iš Rytų/Pietryčių

TAF: OEBH 282300Z 2900/3006 VRB03KT CAVOK BECMG 2906/2908 14015KT BECMG 2916/2918 12006KT

Orai ataskaitas ir orų prognozės (METAR, TAF).

turimą stotys yra geltonos ir raudonos taškus žemėlapyje.

Perkelti pele per norėdami pamatyti stoties vardą.

Tada spustelėkite, norėdami matyti oro stebėjimo ir prognozės.

Norėdami pakeisti žemėlapį: spustelėkite ant žalios mygtukų su juodo kryžiaus žemyn,; žalią mygtuką su brūkšneliu, jei norite nutolinti; arba žalių rodyklių gretimoms žemėlapius.


METAR-TAF: